sensor_id;sensor_type;location;lat;lon;timestamp;pressure;altitude;pressure_sealevel;temperature;humidity
63715;BME280;49858;48.956;9.076;2023-09-30T00:01:49;99587.03;;;21.81;100.00
63715;BME280;49858;48.956;9.076;2023-09-30T00:04:20;99589.56;;;22.20;100.00
63715;BME280;49858;48.956;9.076;2023-09-30T00:06:48;99588.09;;;22.01;100.00
63715;BME280;49858;48.956;9.076;2023-09-30T00:09:15;99574.63;;;21.05;100.00
63715;BME280;49858;48.956;9.076;2023-09-30T00:11:43;99581.94;;;19.84;100.00
63715;BME280;49858;48.956;9.076;2023-09-30T00:14:11;99577.19;;;20.06;100.00
63715;BME280;49858;48.956;9.076;2023-09-30T00:16:39;99587.13;;;19.79;100.00
63715;BME280;49858;48.956;9.076;2023-09-30T00:19:07;99580.09;;;18.94;100.00
63715;BME280;49858;48.956;9.076;2023-09-30T00:21:38;99577.44;;;19.30;100.00
63715;BME280;49858;48.956;9.076;2023-09-30T00:24:06;99572.19;;;19.10;100.00
63715;BME280;49858;48.956;9.076;2023-09-30T00:26:34;99569.34;;;18.96;100.00
63715;BME280;49858;48.956;9.076;2023-09-30T00:29:02;99571.59;;;18.69;100.00
63715;BME280;49858;48.956;9.076;2023-09-30T00:31:31;99571.94;;;18.64;100.00
63715;BME280;49858;48.956;9.076;2023-09-30T00:33:59;99579.63;;;18.78;100.00
63715;BME280;49858;48.956;9.076;2023-09-30T00:36:27;99576.25;;;19.34;100.00
63715;BME280;49858;48.956;9.076;2023-09-30T00:38:56;99579.75;;;19.13;100.00
63715;BME280;49858;48.956;9.076;2023-09-30T00:41:25;99568.09;;;18.83;100.00
63715;BME280;49858;48.956;9.076;2023-09-30T00:43:52;99579.16;;;18.69;100.00
63715;BME280;49858;48.956;9.076;2023-09-30T00:46:26;99585.47;;;18.65;100.00
63715;BME280;49858;48.956;9.076;2023-09-30T00:48:55;99587.78;;;18.49;100.00
63715;BME280;49858;48.956;9.076;2023-09-30T00:51:25;99583.03;;;18.57;100.00
63715;BME280;49858;48.956;9.076;2023-09-30T00:53:57;99591.03;;;18.65;100.00
63715;BME280;49858;48.956;9.076;2023-09-30T00:56:27;99586.34;;;18.73;100.00
63715;BME280;49858;48.956;9.076;2023-09-30T00:58:57;99587.91;;;18.71;100.00
63715;BME280;49858;48.956;9.076;2023-09-30T01:01:26;99586.31;;;18.70;100.00
63715;BME280;49858;48.956;9.076;2023-09-30T01:03:53;99585.56;;;18.73;100.00
63715;BME280;49858;48.956;9.076;2023-09-30T01:06:22;99589.31;;;18.43;100.00
63715;BME280;49858;48.956;9.076;2023-09-30T01:08:50;99591.41;;;19.30;100.00
63715;BME280;49858;48.956;9.076;2023-09-30T01:11:21;99588.22;;;19.42;100.00
63715;BME280;49858;48.956;9.076;2023-09-30T01:13:49;99591.84;;;19.50;100.00
63715;BME280;49858;48.956;9.076;2023-09-30T01:16:19;99589.94;;;19.72;100.00
63715;BME280;49858;48.956;9.076;2023-09-30T01:18:47;99587.53;;;19.77;100.00
63715;BME280;49858;48.956;9.076;2023-09-30T01:21:15;99584.75;;;20.45;100.00
63715;BME280;49858;48.956;9.076;2023-09-30T01:23:46;99589.16;;;20.25;100.00
63715;BME280;49858;48.956;9.076;2023-09-30T01:26:14;99586.53;;;21.23;100.00
63715;BME280;49858;48.956;9.076;2023-09-30T01:28:42;99590.56;;;21.22;100.00
63715;BME280;49858;48.956;9.076;2023-09-30T01:31:10;99582.56;;;21.17;100.00
63715;BME280;49858;48.956;9.076;2023-09-30T01:33:38;99592.34;;;20.59;100.00
63715;BME280;49858;48.956;9.076;2023-09-30T01:36:06;99592.75;;;20.29;100.00
63715;BME280;49858;48.956;9.076;2023-09-30T01:38:35;99590.34;;;20.06;100.00
63715;BME280;49858;48.956;9.076;2023-09-30T01:41:04;99595.75;;;18.58;100.00
63715;BME280;49858;48.956;9.076;2023-09-30T01:43:34;99605.44;;;18.20;100.00
63715;BME280;49858;48.956;9.076;2023-09-30T01:46:03;99598.47;;;18.40;100.00
63715;BME280;49858;48.956;9.076;2023-09-30T01:48:31;99595.84;;;19.49;100.00
63715;BME280;49858;48.956;9.076;2023-09-30T01:51:00;99593.09;;;19.70;100.00
63715;BME280;49858;48.956;9.076;2023-09-30T01:53:27;99589.56;;;20.34;100.00
63715;BME280;49858;48.956;9.076;2023-09-30T01:55:55;99595.91;;;19.77;100.00
63715;BME280;49858;48.956;9.076;2023-09-30T01:58:25;99594.25;;;19.58;100.00
63715;BME280;49858;48.956;9.076;2023-09-30T02:00:53;99602.63;;;19.55;100.00
63715;BME280;49858;48.956;9.076;2023-09-30T02:03:22;99588.91;;;18.41;100.00
63715;BME280;49858;48.956;9.076;2023-09-30T02:05:50;99587.94;;;18.19;100.00
63715;BME280;49858;48.956;9.076;2023-09-30T02:08:18;99592.00;;;18.29;100.00
63715;BME280;49858;48.956;9.076;2023-09-30T02:10:46;99594.19;;;18.57;100.00
63715;BME280;49858;48.956;9.076;2023-09-30T02:13:14;99595.69;;;17.96;100.00
63715;BME280;49858;48.956;9.076;2023-09-30T02:15:47;99619.38;;;18.20;100.00
63715;BME280;49858;48.956;9.076;2023-09-30T02:18:15;99611.03;;;17.42;100.00
63715;BME280;49858;48.956;9.076;2023-09-30T02:20:43;99619.84;;;17.47;100.00
63715;BME280;49858;48.956;9.076;2023-09-30T02:23:11;99610.59;;;18.18;100.00
63715;BME280;49858;48.956;9.076;2023-09-30T02:25:39;99616.06;;;18.55;100.00
63715;BME280;49858;48.956;9.076;2023-09-30T02:28:08;99612.50;;;19.31;100.00
63715;BME280;49858;48.956;9.076;2023-09-30T02:30:36;99615.72;;;19.40;100.00
63715;BME280;49858;48.956;9.076;2023-09-30T02:33:06;99609.06;;;19.84;100.00
63715;BME280;49858;48.956;9.076;2023-09-30T02:35:34;99614.88;;;19.29;100.00
63715;BME280;49858;48.956;9.076;2023-09-30T02:38:05;99612.97;;;18.16;100.00
63715;BME280;49858;48.956;9.076;2023-09-30T02:40:34;99618.50;;;19.29;100.00
63715;BME280;49858;48.956;9.076;2023-09-30T02:43:02;99619.75;;;19.53;100.00
63715;BME280;49858;48.956;9.076;2023-09-30T02:45:31;99621.88;;;19.92;100.00
63715;BME280;49858;48.956;9.076;2023-09-30T02:47:59;99620.28;;;20.12;100.00
63715;BME280;49858;48.956;9.076;2023-09-30T02:50:28;99613.84;;;19.80;100.00
63715;BME280;49858;48.956;9.076;2023-09-30T02:52:59;99615.91;;;20.04;100.00
63715;BME280;49858;48.956;9.076;2023-09-30T02:55:27;99612.72;;;20.38;100.00
63715;BME280;49858;48.956;9.076;2023-09-30T02:57:55;99604.28;;;20.84;100.00
63715;BME280;49858;48.956;9.076;2023-09-30T03:00:23;99619.47;;;20.44;100.00
63715;BME280;49858;48.956;9.076;2023-09-30T03:02:54;99622.75;;;21.66;100.00
63715;BME280;49858;48.956;9.076;2023-09-30T03:05:22;99612.16;;;21.07;100.00
63715;BME280;49858;48.956;9.076;2023-09-30T03:07:52;99624.66;;;20.85;100.00
63715;BME280;49858;48.956;9.076;2023-09-30T03:10:21;99634.22;;;19.95;100.00
63715;BME280;49858;48.956;9.076;2023-09-30T03:12:50;99637.16;;;19.18;100.00
63715;BME280;49858;48.956;9.076;2023-09-30T03:15:19;99644.38;;;19.26;100.00
63715;BME280;49858;48.956;9.076;2023-09-30T03:17:48;99649.44;;;20.29;100.00
63715;BME280;49858;48.956;9.076;2023-09-30T03:20:19;99642.66;;;20.62;100.00
63715;BME280;49858;48.956;9.076;2023-09-30T03:22:48;99638.00;;;21.54;100.00
63715;BME280;49858;48.956;9.076;2023-09-30T03:25:18;99626.06;;;21.47;100.00
63715;BME280;49858;48.956;9.076;2023-09-30T03:27:47;99634.38;;;21.64;100.00
63715;BME280;49858;48.956;9.076;2023-09-30T03:30:16;99621.72;;;21.21;100.00
63715;BME280;49858;48.956;9.076;2023-09-30T03:32:46;99640.19;;;20.97;100.00
63715;BME280;49858;48.956;9.076;2023-09-30T03:35:14;99634.69;;;21.74;100.00
63715;BME280;49858;48.956;9.076;2023-09-30T03:37:45;99612.53;;;21.20;100.00
63715;BME280;49858;48.956;9.076;2023-09-30T03:40:14;99602.34;;;22.25;100.00
63715;BME280;49858;48.956;9.076;2023-09-30T03:42:48;99596.28;;;22.71;100.00
63715;BME280;49858;48.956;9.076;2023-09-30T03:45:17;99602.34;;;22.25;100.00
63715;BME280;49858;48.956;9.076;2023-09-30T03:47:46;99602.25;;;20.88;100.00
63715;BME280;49858;48.956;9.076;2023-09-30T03:50:15;99601.91;;;19.86;100.00
63715;BME280;49858;48.956;9.076;2023-09-30T03:52:44;99607.84;;;19.71;100.00
63715;BME280;49858;48.956;9.076;2023-09-30T03:55:14;99600.16;;;19.32;100.00
63715;BME280;49858;48.956;9.076;2023-09-30T03:57:45;99605.34;;;18.60;100.00
63715;BME280;49858;48.956;9.076;2023-09-30T04:00:15;99613.25;;;18.51;100.00
63715;BME280;49858;48.956;9.076;2023-09-30T04:02:47;99614.72;;;18.89;100.00
63715;BME280;49858;48.956;9.076;2023-09-30T04:05:17;99624.25;;;19.94;100.00
63715;BME280;49858;48.956;9.076;2023-09-30T04:07:46;99627.69;;;19.40;100.00
63715;BME280;49858;48.956;9.076;2023-09-30T04:10:14;99639.75;;;17.19;100.00
63715;BME280;49858;48.956;9.076;2023-09-30T04:12:44;99640.19;;;18.88;100.00
63715;BME280;49858;48.956;9.076;2023-09-30T04:15:12;99622.25;;;18.34;100.00
63715;BME280;49858;48.956;9.076;2023-09-30T04:17:41;99624.75;;;19.01;100.00
63715;BME280;49858;48.956;9.076;2023-09-30T04:20:09;99632.50;;;17.75;100.00
63715;BME280;49858;48.956;9.076;2023-09-30T04:22:42;99629.69;;;17.41;100.00
63715;BME280;49858;48.956;9.076;2023-09-30T04:25:15;99628.56;;;17.83;100.00
63715;BME280;49858;48.956;9.076;2023-09-30T04:27:44;99624.81;;;17.68;100.00
63715;BME280;49858;48.956;9.076;2023-09-30T04:30:15;99632.50;;;17.78;100.00
63715;BME280;49858;48.956;9.076;2023-09-30T04:32:44;99633.16;;;18.05;100.00
63715;BME280;49858;48.956;9.076;2023-09-30T04:35:13;99634.22;;;18.89;100.00
63715;BME280;49858;48.956;9.076;2023-09-30T04:37:41;99646.47;;;19.54;100.00
63715;BME280;49858;48.956;9.076;2023-09-30T04:40:10;99652.53;;;19.74;100.00
63715;BME280;49858;48.956;9.076;2023-09-30T04:42:43;99655.25;;;19.53;100.00
63715;BME280;49858;48.956;9.076;2023-09-30T04:45:11;99651.31;;;19.64;100.00
63715;BME280;49858;48.956;9.076;2023-09-30T04:47:39;99649.53;;;19.24;100.00
63715;BME280;49858;48.956;9.076;2023-09-30T04:50:09;99662.75;;;17.50;100.00
63715;BME280;49858;48.956;9.076;2023-09-30T04:52:38;99668.59;;;17.37;100.00
63715;BME280;49858;48.956;9.076;2023-09-30T04:55:07;99659.97;;;17.16;100.00
63715;BME280;49858;48.956;9.076;2023-09-30T04:57:35;99663.69;;;16.97;100.00
63715;BME280;49858;48.956;9.076;2023-09-30T05:00:04;99669.81;;;17.10;100.00
63715;BME280;49858;48.956;9.076;2023-09-30T05:02:38;99677.22;;;17.29;100.00
63715;BME280;49858;48.956;9.076;2023-09-30T05:05:09;99672.72;;;17.51;100.00
63715;BME280;49858;48.956;9.076;2023-09-30T05:07:37;99666.69;;;18.68;100.00
63715;BME280;49858;48.956;9.076;2023-09-30T05:10:06;99679.16;;;18.33;100.00
63715;BME280;49858;48.956;9.076;2023-09-30T05:12:37;99678.81;;;18.89;100.00
63715;BME280;49858;48.956;9.076;2023-09-30T05:15:05;99662.22;;;19.11;100.00
63715;BME280;49858;48.956;9.076;2023-09-30T05:17:34;99664.13;;;19.87;100.00
63715;BME280;49858;48.956;9.076;2023-09-30T05:20:04;99678.59;;;17.76;100.00
63715;BME280;49858;48.956;9.076;2023-09-30T05:22:36;99676.13;;;17.71;100.00
63715;BME280;49858;48.956;9.076;2023-09-30T05:25:06;99670.00;;;17.24;100.00
63715;BME280;49858;48.956;9.076;2023-09-30T05:27:34;99666.22;;;17.40;100.00
63715;BME280;49858;48.956;9.076;2023-09-30T05:30:02;99661.97;;;18.24;100.00
63715;BME280;49858;48.956;9.076;2023-09-30T05:32:31;99662.97;;;19.04;100.00
63715;BME280;49858;48.956;9.076;2023-09-30T05:34:59;99664.66;;;19.16;100.00
63715;BME280;49858;48.956;9.076;2023-09-30T05:37:29;99653.06;;;19.10;100.00
63715;BME280;49858;48.956;9.076;2023-09-30T05:39:58;99665.47;;;19.20;100.00
63715;BME280;49858;48.956;9.076;2023-09-30T05:42:27;99672.78;;;19.53;100.00
63715;BME280;49858;48.956;9.076;2023-09-30T05:44:55;99678.53;;;19.96;100.00
63715;BME280;49858;48.956;9.076;2023-09-30T05:47:25;99672.88;;;19.78;100.00
63715;BME280;49858;48.956;9.076;2023-09-30T05:49:53;99678.44;;;19.71;100.00
63715;BME280;49858;48.956;9.076;2023-09-30T05:52:22;99676.09;;;19.84;100.00
63715;BME280;49858;48.956;9.076;2023-09-30T05:54:49;99676.09;;;19.77;100.00
63715;BME280;49858;48.956;9.076;2023-09-30T05:57:19;99675.94;;;19.52;100.00
63715;BME280;49858;48.956;9.076;2023-09-30T05:59:46;99673.72;;;19.97;100.00
63715;BME280;49858;48.956;9.076;2023-09-30T06:02:15;99674.50;;;19.94;100.00
63715;BME280;49858;48.956;9.076;2023-09-30T06:04:43;99687.72;;;20.18;100.00
63715;BME280;49858;48.956;9.076;2023-09-30T06:07:12;99708.53;;;20.49;100.00
63715;BME280;49858;48.956;9.076;2023-09-30T06:09:40;99715.34;;;20.62;100.00
63715;BME280;49858;48.956;9.076;2023-09-30T06:12:09;99712.25;;;19.48;100.00
63715;BME280;49858;48.956;9.076;2023-09-30T06:14:39;99726.47;;;20.30;100.00
63715;BME280;49858;48.956;9.076;2023-09-30T06:17:07;99729.72;;;20.57;100.00
63715;BME280;49858;48.956;9.076;2023-09-30T06:19:35;99724.78;;;19.94;100.00
63715;BME280;49858;48.956;9.076;2023-09-30T06:22:04;99713.94;;;19.71;100.00
63715;BME280;49858;48.956;9.076;2023-09-30T06:24:32;99718.78;;;18.16;100.00
63715;BME280;49858;48.956;9.076;2023-09-30T06:27:00;99724.53;;;17.96;100.00
63715;BME280;49858;48.956;9.076;2023-09-30T06:29:28;99729.25;;;17.88;100.00
63715;BME280;49858;48.956;9.076;2023-09-30T06:31:57;99718.00;;;17.48;100.00
63715;BME280;49858;48.956;9.076;2023-09-30T06:34:25;99711.44;;;18.85;100.00
63715;BME280;49858;48.956;9.076;2023-09-30T06:36:52;99716.13;;;18.71;100.00
63715;BME280;49858;48.956;9.076;2023-09-30T06:39:20;99733.09;;;18.55;100.00
63715;BME280;49858;48.956;9.076;2023-09-30T06:41:48;99719.00;;;19.47;100.00
63715;BME280;49858;48.956;9.076;2023-09-30T06:44:17;99733.53;;;18.20;100.00
63715;BME280;49858;48.956;9.076;2023-09-30T06:46:45;99736.31;;;18.20;100.00
63715;BME280;49858;48.956;9.076;2023-09-30T06:49:14;99735.75;;;18.44;100.00
63715;BME280;49858;48.956;9.076;2023-09-30T06:51:42;99740.47;;;19.36;100.00
63715;BME280;49858;48.956;9.076;2023-09-30T06:54:10;99743.09;;;19.84;100.00
63715;BME280;49858;48.956;9.076;2023-09-30T06:56:38;99732.16;;;19.50;100.00
63715;BME280;49858;48.956;9.076;2023-09-30T06:59:07;99741.66;;;20.43;100.00
63715;BME280;49858;48.956;9.076;2023-09-30T07:01:35;99747.63;;;20.35;100.00
63715;BME280;49858;48.956;9.076;2023-09-30T07:04:04;99742.44;;;20.37;100.00
63715;BME280;49858;48.956;9.076;2023-09-30T07:06:34;99736.81;;;20.23;100.00
63715;BME280;49858;48.956;9.076;2023-09-30T07:09:02;99733.66;;;21.03;100.00
63715;BME280;49858;48.956;9.076;2023-09-30T07:11:31;99740.09;;;20.71;100.00
63715;BME280;49858;48.956;9.076;2023-09-30T07:13:59;99747.28;;;20.76;100.00
63715;BME280;49858;48.956;9.076;2023-09-30T07:16:27;99748.09;;;20.87;100.00
63715;BME280;49858;48.956;9.076;2023-09-30T07:18:56;99757.28;;;20.77;100.00
63715;BME280;49858;48.956;9.076;2023-09-30T07:21:24;99765.66;;;21.05;100.00
63715;BME280;49858;48.956;9.076;2023-09-30T07:23:53;99762.03;;;18.84;100.00
63715;BME280;49858;48.956;9.076;2023-09-30T07:26:23;99776.72;;;18.81;100.00
63715;BME280;49858;48.956;9.076;2023-09-30T07:28:51;99771.97;;;20.24;100.00
63715;BME280;49858;48.956;9.076;2023-09-30T07:31:21;99768.06;;;20.82;100.00
63715;BME280;49858;48.956;9.076;2023-09-30T07:33:50;99758.78;;;20.24;100.00
63715;BME280;49858;48.956;9.076;2023-09-30T07:36:18;99753.97;;;19.27;100.00
63715;BME280;49858;48.956;9.076;2023-09-30T07:38:45;99760.03;;;19.39;100.00
63715;BME280;49858;48.956;9.076;2023-09-30T07:41:15;99769.59;;;20.43;100.00
63715;BME280;49858;48.956;9.076;2023-09-30T07:43:44;99784.00;;;21.21;100.00
63715;BME280;49858;48.956;9.076;2023-09-30T07:46:12;99786.44;;;21.22;100.00
63715;BME280;49858;48.956;9.076;2023-09-30T07:48:42;99793.81;;;20.04;100.00
63715;BME280;49858;48.956;9.076;2023-09-30T07:51:10;99807.84;;;20.11;100.00
63715;BME280;49858;48.956;9.076;2023-09-30T07:53:39;99796.41;;;21.02;100.00
63715;BME280;49858;48.956;9.076;2023-09-30T07:56:08;99799.91;;;21.81;100.00
63715;BME280;49858;48.956;9.076;2023-09-30T07:58:37;99795.63;;;21.15;100.00
63715;BME280;49858;48.956;9.076;2023-09-30T08:01:07;99789.53;;;20.35;100.00
63715;BME280;49858;48.956;9.076;2023-09-30T08:03:35;99782.81;;;20.64;100.00
63715;BME280;49858;48.956;9.076;2023-09-30T08:06:04;99770.75;;;22.48;100.00
63715;BME280;49858;48.956;9.076;2023-09-30T08:08:31;99773.28;;;23.32;100.00
63715;BME280;49858;48.956;9.076;2023-09-30T08:10:59;99768.03;;;24.06;100.00
63715;BME280;49858;48.956;9.076;2023-09-30T08:13:27;99766.25;;;24.73;100.00
63715;BME280;49858;48.956;9.076;2023-09-30T08:15:57;99772.44;;;24.38;100.00
63715;BME280;49858;48.956;9.076;2023-09-30T08:18:25;99772.19;;;24.25;100.00
63715;BME280;49858;48.956;9.076;2023-09-30T08:20:53;99777.97;;;24.95;100.00
63715;BME280;49858;48.956;9.076;2023-09-30T08:23:21;99778.38;;;24.70;100.00
63715;BME280;49858;48.956;9.076;2023-09-30T08:25:49;99781.97;;;25.65;100.00
63715;BME280;49858;48.956;9.076;2023-09-30T08:28:17;99779.53;;;25.87;100.00
63715;BME280;49858;48.956;9.076;2023-09-30T08:30:45;99773.38;;;25.92;100.00
63715;BME280;49858;48.956;9.076;2023-09-30T08:33:14;99778.03;;;25.59;100.00
63715;BME280;49858;48.956;9.076;2023-09-30T08:35:42;99762.47;;;25.74;100.00
63715;BME280;49858;48.956;9.076;2023-09-30T08:38:10;99752.59;;;26.38;100.00
63715;BME280;49858;48.956;9.076;2023-09-30T08:40:38;99758.91;;;26.46;100.00
63715;BME280;49858;48.956;9.076;2023-09-30T08:43:11;99764.13;;;26.80;100.00
63715;BME280;49858;48.956;9.076;2023-09-30T08:45:39;99773.47;;;26.77;100.00
63715;BME280;49858;48.956;9.076;2023-09-30T08:48:11;99776.84;;;27.21;100.00
63715;BME280;49858;48.956;9.076;2023-09-30T08:50:40;99763.59;;;27.92;100.00
63715;BME280;49858;48.956;9.076;2023-09-30T08:53:10;99771.53;;;27.68;100.00
63715;BME280;49858;48.956;9.076;2023-09-30T08:55:39;99769.81;;;27.42;100.00
63715;BME280;49858;48.956;9.076;2023-09-30T08:58:09;99761.34;;;28.00;100.00
63715;BME280;49858;48.956;9.076;2023-09-30T09:00:38;99766.25;;;28.50;100.00
63715;BME280;49858;48.956;9.076;2023-09-30T09:03:07;99763.03;;;27.68;100.00
63715;BME280;49858;48.956;9.076;2023-09-30T09:05:35;99765.81;;;27.72;100.00
63715;BME280;49858;48.956;9.076;2023-09-30T09:08:05;99771.31;;;28.17;100.00
63715;BME280;49858;48.956;9.076;2023-09-30T09:10:32;99783.00;;;26.99;100.00
63715;BME280;49858;48.956;9.076;2023-09-30T09:13:00;99786.75;;;26.44;100.00
63715;BME280;49858;48.956;9.076;2023-09-30T09:15:28;99788.19;;;27.50;100.00
63715;BME280;49858;48.956;9.076;2023-09-30T09:17:57;99784.63;;;27.62;100.00
63715;BME280;49858;48.956;9.076;2023-09-30T09:20:25;99777.44;;;27.29;100.00
63715;BME280;49858;48.956;9.076;2023-09-30T09:22:55;99783.19;;;26.60;100.00
63715;BME280;49858;48.956;9.076;2023-09-30T09:25:28;99776.16;;;27.17;100.00
63715;BME280;49858;48.956;9.076;2023-09-30T09:27:56;99779.22;;;27.06;100.00
63715;BME280;49858;48.956;9.076;2023-09-30T09:30:25;99772.53;;;27.16;100.00
63715;BME280;49858;48.956;9.076;2023-09-30T09:32:54;99775.31;;;25.95;100.00
63715;BME280;49858;48.956;9.076;2023-09-30T09:35:27;99767.16;;;26.37;100.00
63715;BME280;49858;48.956;9.076;2023-09-30T09:37:57;99766.69;;;25.42;100.00
63715;BME280;49858;48.956;9.076;2023-09-30T09:40:28;99763.47;;;26.40;100.00
63715;BME280;49858;48.956;9.076;2023-09-30T09:42:58;99755.94;;;26.86;100.00
63715;BME280;49858;48.956;9.076;2023-09-30T09:45:27;99762.50;;;27.73;100.00
63715;BME280;49858;48.956;9.076;2023-09-30T09:47:59;99760.03;;;27.75;100.00
63715;BME280;49858;48.956;9.076;2023-09-30T09:50:28;99772.16;;;27.89;100.00
63715;BME280;49858;48.956;9.076;2023-09-30T09:52:56;99766.63;;;28.40;100.00
63715;BME280;49858;48.956;9.076;2023-09-30T09:55:27;99768.09;;;28.44;98.79
63715;BME280;49858;48.956;9.076;2023-09-30T09:57:55;99770.47;;;28.59;95.25
63715;BME280;49858;48.956;9.076;2023-09-30T10:00:26;99762.06;;;28.68;93.76
63715;BME280;49858;48.956;9.076;2023-09-30T10:02:56;99771.34;;;28.81;93.08
63715;BME280;49858;48.956;9.076;2023-09-30T10:05:25;99754.72;;;29.65;89.78
63715;BME280;49858;48.956;9.076;2023-09-30T10:07:57;99759.94;;;29.54;89.94
63715;BME280;49858;48.956;9.076;2023-09-30T10:10:30;99745.41;;;28.19;95.29
63715;BME280;49858;48.956;9.076;2023-09-30T10:13:03;99743.81;;;28.82;94.91
63715;BME280;49858;48.956;9.076;2023-09-30T10:15:38;99741.19;;;29.69;88.93
63715;BME280;49858;48.956;9.076;2023-09-30T10:18:09;99738.47;;;30.41;83.16
63715;BME280;49858;48.956;9.076;2023-09-30T10:20:42;99735.16;;;30.92;81.84
63715;BME280;49858;48.956;9.076;2023-09-30T10:23:25;99737.00;;;30.76;81.24
63715;BME280;49858;48.956;9.076;2023-09-30T10:26:13;99746.09;;;26.41;100.00
63715;BME280;49858;48.956;9.076;2023-09-30T10:28:45;99750.13;;;29.11;92.05
63715;BME280;49858;48.956;9.076;2023-09-30T10:31:16;99739.03;;;27.60;95.38
63715;BME280;49858;48.956;9.076;2023-09-30T10:34:17;99731.19;;;28.48;88.00
63715;BME280;49858;48.956;9.076;2023-09-30T10:36:46;99729.63;;;27.21;92.71
63715;BME280;49858;48.956;9.076;2023-09-30T10:39:53;99726.47;;;27.61;98.76
63715;BME280;49858;48.956;9.076;2023-09-30T10:42:45;99725.81;;;30.11;83.55
63715;BME280;49858;48.956;9.076;2023-09-30T10:45:41;99720.53;;;28.52;87.63
63715;BME280;49858;48.956;9.076;2023-09-30T10:48:33;99721.56;;;25.46;100.00
63715;BME280;49858;48.956;9.076;2023-09-30T10:51:16;99724.09;;;24.70;100.00
63715;BME280;49858;48.956;9.076;2023-09-30T10:53:48;99719.66;;;24.96;100.00
63715;BME280;49858;48.956;9.076;2023-09-30T10:56:20;99722.03;;;27.02;100.00
63715;BME280;49858;48.956;9.076;2023-09-30T10:58:51;99704.88;;;29.55;88.30
63715;BME280;49858;48.956;9.076;2023-09-30T11:01:20;99711.72;;;26.63;99.97
63715;BME280;49858;48.956;9.076;2023-09-30T11:03:50;99709.09;;;26.72;100.00
63715;BME280;49858;48.956;9.076;2023-09-30T11:06:20;99704.03;;;29.33;86.30
63715;BME280;49858;48.956;9.076;2023-09-30T11:08:51;99697.44;;;31.65;71.22
63715;BME280;49858;48.956;9.076;2023-09-30T11:11:32;99693.72;;;32.01;68.71
63715;BME280;49858;48.956;9.076;2023-09-30T11:14:02;99694.59;;;26.21;89.10
63715;BME280;49858;48.956;9.076;2023-09-30T11:16:41;99692.50;;;24.62;100.00
63715;BME280;49858;48.956;9.076;2023-09-30T11:19:10;99687.22;;;25.91;98.38
63715;BME280;49858;48.956;9.076;2023-09-30T11:21:41;99693.09;;;27.14;87.12
63715;BME280;49858;48.956;9.076;2023-09-30T11:24:10;99699.00;;;28.16;82.34
63715;BME280;49858;48.956;9.076;2023-09-30T11:26:38;99690.84;;;29.83;76.85
63715;BME280;49858;48.956;9.076;2023-09-30T11:29:10;99693.59;;;28.35;79.73
63715;BME280;49858;48.956;9.076;2023-09-30T11:31:40;99692.47;;;27.65;86.84
63715;BME280;49858;48.956;9.076;2023-09-30T11:34:10;99692.38;;;26.29;93.21
63715;BME280;49858;48.956;9.076;2023-09-30T11:36:39;99684.94;;;27.74;87.72
63715;BME280;49858;48.956;9.076;2023-09-30T11:39:09;99692.09;;;28.17;84.23
63715;BME280;49858;48.956;9.076;2023-09-30T11:41:38;99693.91;;;29.66;72.63
63715;BME280;49858;48.956;9.076;2023-09-30T11:44:07;99683.69;;;30.31;70.24
63715;BME280;49858;48.956;9.076;2023-09-30T11:46:51;99671.41;;;31.29;64.87
63715;BME280;49858;48.956;9.076;2023-09-30T11:49:28;99680.13;;;32.71;60.38
63715;BME280;49858;48.956;9.076;2023-09-30T11:51:57;99674.78;;;32.31;68.23
63715;BME280;49858;48.956;9.076;2023-09-30T11:54:33;99679.66;;;32.97;64.54
63715;BME280;49858;48.956;9.076;2023-09-30T11:57:04;99690.00;;;31.03;73.90
63715;BME280;49858;48.956;9.076;2023-09-30T11:59:31;99694.22;;;30.71;71.05
63715;BME280;49858;48.956;9.076;2023-09-30T12:02:01;99698.59;;;31.30;72.67
63715;BME280;49858;48.956;9.076;2023-09-30T12:04:41;99701.44;;;29.60;81.72
63715;BME280;49858;48.956;9.076;2023-09-30T12:07:10;99686.38;;;30.25;75.78
63715;BME280;49858;48.956;9.076;2023-09-30T12:09:38;99688.41;;;30.74;75.21
63715;BME280;49858;48.956;9.076;2023-09-30T12:12:07;99680.81;;;30.71;76.52
63715;BME280;49858;48.956;9.076;2023-09-30T12:14:37;99689.47;;;30.18;78.59
63715;BME280;49858;48.956;9.076;2023-09-30T12:17:07;99688.09;;;29.48;78.22
63715;BME280;49858;48.956;9.076;2023-09-30T12:19:39;99692.09;;;28.17;81.27
63715;BME280;49858;48.956;9.076;2023-09-30T12:22:08;99681.41;;;28.85;82.03
63715;BME280;49858;48.956;9.076;2023-09-30T12:24:37;99690.41;;;28.33;85.06
63715;BME280;49858;48.956;9.076;2023-09-30T12:27:06;99695.09;;;28.99;78.86
63715;BME280;49858;48.956;9.076;2023-09-30T12:29:34;99676.16;;;27.56;87.01
63715;BME280;49858;48.956;9.076;2023-09-30T12:32:05;99681.84;;;28.84;80.69
63715;BME280;49858;48.956;9.076;2023-09-30T12:34:34;99680.19;;;29.65;75.58
63715;BME280;49858;48.956;9.076;2023-09-30T12:37:03;99684.81;;;31.11;66.85
63715;BME280;49858;48.956;9.076;2023-09-30T12:39:31;99674.81;;;32.22;67.28
63715;BME280;49858;48.956;9.076;2023-09-30T12:42:03;99659.38;;;31.25;64.34
63715;BME280;49858;48.956;9.076;2023-09-30T12:44:35;99671.41;;;29.72;67.96
63715;BME280;49858;48.956;9.076;2023-09-30T12:47:03;99671.59;;;29.12;68.84
63715;BME280;49858;48.956;9.076;2023-09-30T12:49:35;99670.16;;;31.40;62.21
63715;BME280;49858;48.956;9.076;2023-09-30T12:52:03;99674.47;;;32.62;54.59
63715;BME280;49858;48.956;9.076;2023-09-30T12:54:32;99676.38;;;32.23;63.14
63715;BME280;49858;48.956;9.076;2023-09-30T12:57:00;99671.91;;;31.98;66.68
63715;BME280;49858;48.956;9.076;2023-09-30T12:59:28;99674.66;;;32.59;62.77
63715;BME280;49858;48.956;9.076;2023-09-30T13:01:56;99665.72;;;32.42;59.50
63715;BME280;49858;48.956;9.076;2023-09-30T13:04:24;99668.22;;;31.55;65.84
63715;BME280;49858;48.956;9.076;2023-09-30T13:06:54;99671.06;;;31.55;66.40